Time;durP1;ratioP1;P1;durP2;ratioP2;P2;SDS_P1;SDS_P2;PMS_P1;PMS_P2;Temp;Humidity;BMP_temperature;BMP_pressure;BME280_temperature;BME280_humidity;BME280_pressure;Samples;Min_cycle;Max_cycle;Signal;HPM_P1;HPM_P2
2023/06/06 00:01:36;;;;;;;10.40;5.68;;;;;;;20.97;65.52;99173.66;4331006;33;34646;-90
2023/06/06 00:04:04;;;;;;;10.32;5.97;;;;;;;20.62;66.26;99167.63;4330976;33;34218;-86
2023/06/06 00:06:33;;;;;;;10.73;5.80;;;;;;;20.63;65.84;99176.41;4330422;33;33668;-85
2023/06/06 00:09:05;;;;;;;10.98;5.62;;;;;;;20.71;65.54;99178.81;4331349;33;33932;-89
2023/06/06 00:11:35;;;;;;;8.55;5.72;;;;;;;20.81;64.90;99181.16;4330618;33;33641;-84
2023/06/06 00:14:04;;;;;;;8.90;5.70;;;;;;;20.76;65.05;99180.44;4330927;33;33608;-87
2023/06/06 00:16:34;;;;;;;10.57;5.80;;;;;;;20.71;65.32;99177.03;4330249;33;33240;-88
2023/06/06 00:19:03;;;;;;;11.85;6.05;;;;;;;20.64;65.32;99186.03;4329499;33;34899;-84
2023/06/06 00:21:35;;;;;;;10.93;5.68;;;;;;;20.59;65.50;99188.78;4316280;33;34704;-85
2023/06/06 00:24:03;;;;;;;11.38;5.78;;;;;;;20.59;65.95;99190.56;4316300;33;33376;-91
2023/06/06 00:26:31;;;;;;;9.07;5.10;;;;;;;20.60;66.04;99173.84;4316160;33;33594;-84
2023/06/06 00:28:59;;;;;;;9.57;5.20;;;;;;;20.65;65.79;99177.25;4327160;33;34897;-85
2023/06/06 00:31:26;;;;;;;11.90;5.80;;;;;;;20.67;65.80;99172.78;4330706;33;33759;-85
2023/06/06 00:33:54;;;;;;;9.43;5.18;;;;;;;20.84;65.49;99167.91;4330902;33;33438;-83
2023/06/06 00:36:21;;;;;;;8.30;4.50;;;;;;;20.87;65.08;99170.44;4330829;33;35107;-91
2023/06/06 00:38:50;;;;;;;8.57;4.93;;;;;;;20.83;65.47;99173.19;4330306;33;34266;-88
2023/06/06 00:41:17;;;;;;;10.88;4.60;;;;;;;20.81;65.65;99167.97;4329415;33;33825;-84
2023/06/06 00:43:45;;;;;;;11.23;5.35;;;;;;;20.85;65.45;99164.34;4330419;33;33643;-84
2023/06/06 00:46:13;;;;;;;10.88;5.37;;;;;;;20.74;65.57;99171.69;4329625;33;33934;-86
2023/06/06 00:48:41;;;;;;;8.70;4.70;;;;;;;20.64;66.14;99162.31;4317203;33;34589;-86
2023/06/06 00:51:09;;;;;;;8.80;5.00;;;;;;;20.61;66.35;99165.06;4330099;33;33919;-84
2023/06/06 00:53:37;;;;;;;10.50;4.80;;;;;;;20.56;66.60;99154.63;4326204;33;34229;-85
2023/06/06 00:56:06;;;;;;;9.43;5.57;;;;;;;20.26;67.53;99153.66;4317205;33;33205;-84
2023/06/06 00:58:34;;;;;;;8.82;4.37;;;;;;;20.65;66.45;99145.63;4304667;33;32746;-83
2023/06/06 01:01:04;;;;;;;10.82;5.25;;;;;;;20.76;65.43;99148.81;4314852;33;34828;-83
2023/06/06 01:03:34;;;;;;;8.70;4.72;;;;;;;20.05;67.17;99149.84;4329332;33;33581;-85
2023/06/06 01:06:03;;;;;;;7.43;4.75;;;;;;;19.76;67.45;99163.72;4329274;33;34836;-83
2023/06/06 01:08:31;;;;;;;8.48;5.07;;;;;;;19.27;69.90;99169.25;4329825;33;35127;-84
2023/06/06 01:11:06;;;;;;;7.93;4.35;;;;;;;19.76;68.71;99157.59;4329743;33;34403;-83
2023/06/06 01:13:57;;;;;;;7.15;4.93;;;;;;;19.50;68.80;99160.81;4330208;33;34248;-86
2023/06/06 01:16:25;;;;;;;7.20;4.65;;;;;;;19.27;69.29;99164.84;4325257;33;33863;-83
2023/06/06 01:18:56;;;;;;;10.57;5.12;;;;;;;19.27;70.29;99164.84;4321909;33;33826;-83
2023/06/06 01:21:32;;;;;;;7.40;4.70;;;;;;;18.54;72.05;99156.72;4327414;33;33957;-89
2023/06/06 01:24:00;;;;;;;9.82;5.22;;;;;;;18.39;73.51;99157.03;4328579;33;33190;-89
2023/06/06 01:26:28;;;;;;;9.52;5.43;;;;;;;18.61;73.08;99160.97;4329932;33;34673;-84
2023/06/06 01:28:55;;;;;;;8.95;5.35;;;;;;;18.44;74.73;99161.28;4329280;33;35120;-86
2023/06/06 01:31:24;;;;;;;10.50;5.93;;;;;;;18.53;74.22;99154.16;4329472;33;34156;-87
2023/06/06 01:33:56;;;;;;;9.38;6.05;;;;;;;18.41;75.55;99156.13;4328791;33;34035;-84
2023/06/06 01:36:44;;;;;;;9.20;5.53;;;;;;;18.47;74.97;99153.34;4327389;33;34070;-83
2023/06/06 01:39:19;;;;;;;8.73;5.85;;;;;;;18.76;74.25;99146.69;4328823;33;34186;-82
2023/06/06 01:41:48;;;;;;;10.33;6.53;;;;;;;18.49;75.07;99153.34;4316759;33;33935;-85
2023/06/06 01:44:16;;;;;;;10.77;6.55;;;;;;;18.61;75.60;99153.09;4316333;33;33368;-84
2023/06/06 01:46:43;;;;;;;9.80;6.32;;;;;;;18.56;75.25;99152.34;4327766;33;33780;-85
2023/06/06 01:49:11;;;;;;;8.07;6.12;;;;;;;18.40;76.47;99156.13;4316782;33;35292;-90
2023/06/06 01:51:39;;;;;;;8.63;6.35;;;;;;;18.76;74.73;99158.97;4316505;33;32725;-86
2023/06/06 01:54:10;;;;;;;11.75;6.72;;;;;;;18.74;74.82;99159.00;4331923;33;33391;-89
2023/06/06 01:56:37;;;;;;;12.50;6.78;;;;;;;18.57;76.37;99145.31;4329775;33;34650;-85
2023/06/06 01:59:05;;;;;;;9.63;5.87;;;;;;;18.85;75.39;99150.88;4331980;33;34991;-85
2023/06/06 02:01:33;;;;;;;9.27;6.82;;;;;;;18.70;76.19;99149.41;4331725;33;33855;-83
2023/06/06 02:04:00;;;;;;;12.98;6.78;;;;;;;18.32;78.37;99143.16;4331785;33;33534;-83
2023/06/06 02:06:30;;;;;;;9.23;6.22;;;;;;;18.48;77.56;99141.09;4330910;33;33845;-84
2023/06/06 02:08:57;;;;;;;9.43;6.78;;;;;;;18.75;76.50;99147.56;4338046;33;34252;-90
2023/06/06 02:11:26;;;;;;;10.05;6.97;;;;;;;18.34;77.69;99151.88;4346574;33;33814;-89
2023/06/06 02:13:57;;;;;;;12.05;7.30;;;;;;;18.37;78.29;99153.56;4346826;33;33831;-90
2023/06/06 02:16:24;;;;;;;8.70;6.60;;;;;;;18.76;76.92;99151.09;4334409;33;33523;-84
2023/06/06 02:18:52;;;;;;;9.68;7.30;;;;;;;18.74;77.15;99152.88;4323271;33;34014;-88
2023/06/06 02:21:20;;;;;;;9.43;6.50;;;;;;;19.02;75.47;99163.69;4317016;33;34205;-83
2023/06/06 02:23:48;;;;;;;12.75;6.03;;;;;;;18.90;75.28;99163.03;4324149;33;33284;-84
2023/06/06 02:26:16;;;;;;;8.93;6.50;;;;;;;18.40;78.22;99164.88;4331360;33;34004;-84
2023/06/06 02:28:44;;;;;;;9.60;7.07;;;;;;;18.92;75.80;99169.13;4331857;33;33946;-90
2023/06/06 02:31:14;;;;;;;9.88;7.07;;;;;;;18.89;75.97;99171.81;4331397;33;34417;-84
2023/06/06 02:33:42;;;;;;;12.40;7.65;;;;;;;19.00;75.74;99171.56;4330748;33;34267;-90
2023/06/06 02:36:14;;;;;;;9.98;6.37;;;;;;;18.94;75.85;99182.19;4331568;33;33353;-84
2023/06/06 02:38:42;;;;;;;10.98;7.10;;;;;;;19.28;74.21;99190.25;4331352;33;34843;-84
2023/06/06 02:41:10;;;;;;;14.80;7.57;;;;;;;19.41;73.98;99196.09;4330607;33;34663;-86
2023/06/06 02:43:39;;;;;;;12.68;7.75;;;;;;;19.42;74.25;99189.94;4330376;33;33842;-87
2023/06/06 02:46:07;;;;;;;15.40;8.07;;;;;;;19.49;74.02;99188.03;4330110;33;33890;-91
2023/06/06 02:48:35;;;;;;;12.57;7.85;;;;;;;19.47;73.95;99174.91;4330771;33;33765;-84
2023/06/06 02:51:03;;;;;;;9.27;6.55;;;;;;;19.79;73.03;99183.84;4330933;33;34795;-85
2023/06/06 02:53:32;;;;;;;10.98;6.50;;;;;;;19.72;72.90;99187.53;4331843;33;33351;-84
2023/06/06 02:56:00;;;;;;;13.90;6.72;;;;;;;19.31;74.70;99182.28;4331267;33;33294;-85
2023/06/06 02:58:28;;;;;;;12.30;6.82;;;;;;;19.44;74.09;99186.37;4331733;33;34148;-84
2023/06/06 03:00:57;;;;;;;9.10;7.05;;;;;;;19.38;74.50;99188.28;4330649;33;34690;-88
2023/06/06 03:03:24;;;;;;;10.73;6.30;;;;;;;19.50;74.11;99184.50;4330428;33;33968;-84
2023/06/06 03:05:54;;;;;;;9.90;6.75;;;;;;;19.80;73.09;99173.28;4330699;33;34816;-88
2023/06/06 03:08:23;;;;;;;11.85;7.68;;;;;;;19.86;72.77;99186.28;4331135;33;33991;-84
2023/06/06 03:10:52;;;;;;;11.27;6.75;;;;;;;19.88;72.71;99179.19;4329282;33;34914;-86
2023/06/06 03:13:20;;;;;;;8.63;6.10;;;;;;;20.05;72.14;99181.44;4329797;33;32945;-84
2023/06/06 03:15:48;;;;;;;12.02;6.55;;;;;;;19.93;72.45;99193.13;4330068;33;34821;-84
2023/06/06 03:18:20;;;;;;;9.77;6.93;;;;;;;19.84;72.79;99197.75;4331009;33;33448;-84
2023/06/06 03:20:55;;;;;;;8.52;6.30;;;;;;;19.98;72.38;99215.84;4329591;33;34774;-85
2023/06/06 03:23:24;;;;;;;11.27;6.15;;;;;;;20.06;71.86;99217.34;4330166;33;32924;-85
2023/06/06 03:25:53;;;;;;;13.00;7.07;;;;;;;20.21;71.23;99218.75;4331216;33;34870;-84
2023/06/06 03:28:22;;;;;;;9.75;6.70;;;;;;;19.63;73.59;99212.28;4330363;33;34238;-90
2023/06/06 03:30:51;;;;;;;11.95;7.18;;;;;;;20.06;72.19;99201.56;4331045;33;33800;-86
2023/06/06 03:33:18;;;;;;;12.63;6.72;;;;;;;20.23;71.40;99195.00;4331599;33;34222;-86
2023/06/06 03:35:46;;;;;;;11.98;7.05;;;;;;;20.15;71.65;99203.09;4329999;33;34036;-85
2023/06/06 03:38:14;;;;;;;13.18;6.82;;;;;;;20.22;71.20;99204.66;4330730;33;33849;-86
2023/06/06 03:40:42;;;;;;;13.32;7.65;;;;;;;20.17;71.46;99198.66;4318164;33;34026;-85
2023/06/06 03:43:10;;;;;;;13.88;6.37;;;;;;;20.14;71.42;99206.63;4331071;33;33365;-92
2023/06/06 03:45:38;;;;;;;11.88;7.07;;;;;;;20.27;71.01;99181.75;4330097;33;33691;-85
2023/06/06 03:48:06;;;;;;;8.88;6.37;;;;;;;19.25;74.41;99197.34;4331381;33;33743;-93
2023/06/06 03:50:34;;;;;;;9.48;6.15;;;;;;;19.21;75.18;99186.03;4329173;33;33797;-86
2023/06/06 03:53:02;;;;;;;9.20;7.15;;;;;;;19.09;75.78;99181.91;4330175;33;33444;-85
2023/06/06 03:55:33;;;;;;;11.60;6.62;;;;;;;19.27;75.08;99172.72;4317637;33;32488;-85
2023/06/06 03:58:03;;;;;;;9.10;6.85;;;;;;;19.46;74.61;99165.28;4329343;33;34279;-85
2023/06/06 04:00:32;;;;;;;11.75;7.20;;;;;;;19.31;75.71;99145.47;4330459;33;34657;-88
2023/06/06 04:03:00;;;;;;;10.93;7.43;;;;;;;19.56;74.35;99155.44;4330358;33;33749;-84
2023/06/06 04:05:28;;;;;;;10.00;7.43;;;;;;;19.46;74.89;99160.03;4331076;33;34515;-89
2023/06/06 04:07:56;;;;;;;10.75;7.90;;;;;;;19.28;75.37;99169.22;4329804;33;34118;-84
2023/06/06 04:10:23;;;;;;;10.32;7.40;;;;;;;19.65;73.77;99163.13;4331093;33;33411;-85
2023/06/06 04:12:51;;;;;;;10.40;7.00;;;;;;;19.33;75.17;99175.25;4330323;33;34523;-85
2023/06/06 04:15:19;;;;;;;10.48;7.68;;;;;;;19.58;73.65;99167.63;4318010;33;34338;-84
2023/06/06 04:17:47;;;;;;;10.77;7.62;;;;;;;19.63;73.98;99167.56;4329936;33;34109;-86
2023/06/06 04:20:15;;;;;;;10.27;8.15;;;;;;;19.16;75.43;99177.37;4330920;33;33661;-90
2023/06/06 04:22:44;;;;;;;13.68;8.52;;;;;;;19.27;75.13;99180.63;4316855;33;34352;-92
2023/06/06 04:25:15;;;;;;;10.63;8.02;;;;;;;19.40;74.89;99171.56;4330163;33;33809;-91
2023/06/06 04:27:44;;;;;;;11.55;9.02;;;;;;;18.87;78.10;99181.50;4330633;33;33342;-84
2023/06/06 04:30:23;;;;;;;11.55;7.72;;;;;;;19.08;77.25;99180.16;4329061;33;33861;-84
2023/06/06 04:32:52;;;;;;;13.13;9.20;;;;;;;19.16;76.50;99182.62;4331193;33;33266;-86
2023/06/06 04:35:20;;;;;;;13.05;8.63;;;;;;;18.83;78.52;99182.44;4317578;33;33904;-90
2023/06/06 04:37:50;;;;;;;12.37;9.75;;;;;;;18.78;79.34;99181.66;4330651;33;34189;-89
2023/06/06 04:40:21;;;;;;;12.15;9.77;;;;;;;18.65;79.91;99175.78;4330111;33;34088;-84
2023/06/06 04:42:50;;;;;;;11.45;8.77;;;;;;;18.92;79.32;99184.87;4331176;33;34079;-87
2023/06/06 04:45:17;;;;;;;12.60;8.18;;;;;;;18.61;80.17;99178.50;4329871;33;33927;-91
2023/06/06 04:47:45;;;;;;;11.18;8.02;;;;;;;19.02;78.57;99192.59;4330534;33;34899;-85
2023/06/06 04:50:13;;;;;;;12.25;8.77;;;;;;;18.79;79.16;99178.16;4330501;33;34082;-88
2023/06/06 04:52:44;;;;;;;10.45;7.55;;;;;;;18.63;80.01;99177.53;4329833;33;32896;-85
2023/06/06 04:55:11;;;;;;;14.50;9.02;;;;;;;18.71;79.41;99188.81;4304860;33;34212;-85
2023/06/06 04:57:40;;;;;;;11.35;7.78;;;;;;;18.29;81.13;99177.31;4324356;33;34212;-90
2023/06/06 05:00:09;;;;;;;13.35;9.15;;;;;;;18.27;81.43;99179.13;4318670;33;34808;-85
2023/06/06 05:02:37;;;;;;;12.85;8.75;;;;;;;18.55;80.44;99186.47;4317635;33;34309;-90
2023/06/06 05:05:09;;;;;;;12.40;8.75;;;;;;;18.85;79.41;99188.53;4330268;33;34096;-84
2023/06/06 05:07:39;;;;;;;11.30;8.93;;;;;;;18.58;80.43;99186.41;4329687;33;33538;-90
2023/06/06 05:10:07;;;;;;;12.95;9.05;;;;;;;18.45;81.17;99185.81;4332639;33;34812;-86
2023/06/06 05:12:34;;;;;;;12.45;9.00;;;;;;;18.51;80.83;99192.69;4328394;33;33599;-88
2023/06/06 05:15:02;;;;;;;12.15;9.02;;;;;;;18.39;81.53;99188.53;4330351;33;33959;-88
2023/06/06 05:17:30;;;;;;;13.70;10.30;;;;;;;18.20;83.36;99190.63;4328953;33;33870;-89
2023/06/06 05:19:58;;;;;;;14.85;10.02;;;;;;;18.51;81.91;99196.16;4329885;33;33580;-91
2023/06/06 05:22:25;;;;;;;12.80;9.82;;;;;;;19.01;79.35;99193.47;4330662;33;33619;-91
2023/06/06 05:24:53;;;;;;;14.87;10.00;;;;;;;18.52;81.23;99197.03;4329775;33;33997;-90
2023/06/06 05:27:20;;;;;;;13.52;10.55;;;;;;;18.27;82.28;99192.25;4328485;33;33778;-84
2023/06/06 05:29:48;;;;;;;14.00;10.30;;;;;;;18.78;80.83;99202.66;4331140;33;33905;-88
2023/06/06 05:32:16;;;;;;;12.52;10.63;;;;;;;18.89;80.41;99205.94;4318837;33;32604;-84
2023/06/06 05:34:44;;;;;;;12.63;10.38;;;;;;;19.07;79.12;99203.84;4329917;33;33127;-84
2023/06/06 05:37:11;;;;;;;13.68;10.57;;;;;;;19.13;78.91;99191.47;4331218;33;34416;-84
2023/06/06 05:39:39;;;;;;;13.27;9.93;;;;;;;18.79;81.37;99204.44;4331700;33;34254;-84
2023/06/06 05:42:07;;;;;;;15.10;11.35;;;;;;;19.07;79.32;99204.72;4331884;33;33628;-83
2023/06/06 05:44:35;;;;;;;16.20;11.85;;;;;;;19.02;79.91;99203.09;4330210;33;34035;-83
2023/06/06 05:47:03;;;;;;;14.40;12.37;;;;;;;19.30;78.62;99206.84;4331824;33;33761;-92
2023/06/06 05:49:31;;;;;;;15.68;12.27;;;;;;;18.62;81.90;99195.97;4331170;33;33973;-83
2023/06/06 05:51:58;;;;;;;14.80;12.55;;;;;;;18.33;83.61;99205.25;4330209;33;33569;-84
2023/06/06 05:54:27;;;;;;;18.77;13.95;;;;;;;18.58;82.55;99208.28;4331146;33;33865;-84
2023/06/06 05:57:19;;;;;;;17.45;13.13;;;;;;;18.57;83.12;99203.06;4331786;33;34143;-84
2023/06/06 05:59:47;;;;;;;17.33;14.63;;;;;;;18.67;83.25;99197.59;4318352;33;34921;-83
2023/06/06 06:02:14;;;;;;;20.42;15.13;;;;;;;18.69;82.40;99200.22;4331660;33;33396;-85
2023/06/06 06:04:42;;;;;;;18.27;15.40;;;;;;;18.85;82.17;99201.66;4330861;33;33947;-83
2023/06/06 06:07:11;;;;;;;20.60;15.10;;;;;;;19.10;81.23;99206.41;4331229;33;33904;-85
2023/06/06 06:09:39;;;;;;;18.27;14.25;;;;;;;19.11;81.50;99213.41;4330091;33;34477;-84
2023/06/06 06:12:07;;;;;;;18.98;15.43;;;;;;;19.11;80.50;99210.78;4331387;33;33605;-85
2023/06/06 06:14:35;;;;;;;20.33;15.55;;;;;;;18.83;83.21;99216.59;4328949;33;34819;-84
2023/06/06 06:17:02;;;;;;;22.27;16.37;;;;;;;19.12;81.81;99212.50;4331381;33;34800;-88
2023/06/06 06:19:30;;;;;;;21.52;17.15;;;;;;;19.12;81.46;99212.50;4331213;33;33854;-83
2023/06/06 06:21:58;;;;;;;23.12;17.37;;;;;;;18.99;82.49;99217.16;4331670;33;33375;-85
2023/06/06 06:24:25;;;;;;;22.30;17.08;;;;;;;19.06;82.46;99225.78;4330786;33;34563;-83
2023/06/06 06:26:53;;;;;;;19.33;17.23;;;;;;;19.06;82.33;99217.91;4330321;33;34050;-83
2023/06/06 06:29:20;;;;;;;22.55;17.40;;;;;;;19.15;81.04;99217.69;4326063;33;33975;-82
2023/06/06 06:31:48;;;;;;;21.40;17.12;;;;;;;19.30;80.24;99220.00;4308328;33;32996;-83
2023/06/06 06:34:16;;;;;;;23.20;17.58;;;;;;;19.38;80.31;99231.19;4331369;33;33790;-84
2023/06/06 06:36:43;;;;;;;22.48;18.27;;;;;;;19.16;81.70;99230.78;4331516;33;34315;-90
2023/06/06 06:39:17;;;;;;;24.50;19.23;;;;;;;19.63;79.71;99231.56;4330704;33;34043;-84
2023/06/06 06:41:46;;;;;;;25.00;19.15;;;;;;;20.08;78.25;99226.09;4327389;33;33727;-86
2023/06/06 06:44:13;;;;;;;24.48;17.52;;;;;;;19.95;78.41;99231.69;4328153;33;34915;-90
2023/06/06 06:46:41;;;;;;;25.75;19.37;;;;;;;20.00;77.91;99237.69;4316807;33;35077;-84
2023/06/06 06:49:15;;;;;;;25.70;18.40;;;;;;;20.25;76.28;99236.19;4317095;33;33285;-84
2023/06/06 06:51:43;;;;;;;21.42;16.95;;;;;;;20.21;76.36;99234.53;4317619;33;32980;-84
2023/06/06 06:54:12;;;;;;;23.23;17.58;;;;;;;20.36;75.24;99241.19;4307788;33;34894;-84
2023/06/06 06:56:42;;;;;;;24.05;17.55;;;;;;;20.24;76.50;99244.13;4319747;33;34967;-88
2023/06/06 06:59:10;;;;;;;21.02;18.27;;;;;;;20.28;77.14;99244.00;4308531;33;34422;-89
2023/06/06 07:01:38;;;;;;;24.37;18.45;;;;;;;20.35;76.92;99237.69;4320853;33;34049;-83
2023/06/06 07:04:06;;;;;;;23.98;19.30;;;;;;;20.50;76.41;99240.88;4325751;33;33792;-89
2023/06/06 07:06:34;;;;;;;26.05;19.27;;;;;;;20.36;76.89;99239.41;4321188;33;35104;-89
2023/06/06 07:09:04;;;;;;;27.95;20.37;;;;;;;20.63;74.69;99234.34;4320887;33;33853;-83
2023/06/06 07:11:31;;;;;;;26.27;19.77;;;;;;;20.85;73.74;99238.13;4319765;33;33236;-87
2023/06/06 07:13:59;;;;;;;25.65;19.73;;;;;;;20.57;75.21;99245.03;4331303;33;33641;-83
2023/06/06 07:16:27;;;;;;;28.17;21.00;;;;;;;20.86;74.30;99242.47;4331638;33;33669;-83
2023/06/06 07:18:54;;;;;;;26.60;21.33;;;;;;;20.68;75.10;99240.34;4331290;33;34291;-84
2023/06/06 07:21:22;;;;;;;28.87;21.52;;;;;;;20.50;76.04;99241.72;4321386;33;34560;-84
2023/06/06 07:23:51;;;;;;;26.05;22.33;;;;;;;20.61;76.04;99241.44;4316513;33;33681;-89
2023/06/06 07:26:19;;;;;;;29.33;22.02;;;;;;;20.34;76.79;99243.88;4317281;33;34037;-87
2023/06/06 07:28:47;;;;;;;28.98;22.33;;;;;;;20.79;74.69;99238.28;4331068;33;34841;-85
2023/06/06 07:31:15;;;;;;;33.47;24.20;;;;;;;20.81;75.13;99246.16;4325486;33;33138;-84
2023/06/06 07:33:42;;;;;;;29.85;24.65;;;;;;;20.54;77.42;99242.50;4317529;33;33418;-84
2023/06/06 07:36:10;;;;;;;28.05;22.75;;;;;;;20.72;76.60;99239.37;4319749;33;34072;-85
2023/06/06 07:38:38;;;;;;;29.40;23.70;;;;;;;20.83;76.01;99242.56;4315104;33;33995;-88
2023/06/06 07:41:05;;;;;;;30.10;24.75;;;;;;;20.75;76.09;99239.28;4315215;33;33486;-84
2023/06/06 07:43:33;;;;;;;30.75;24.63;;;;;;;20.55;77.01;99241.59;4317224;33;34760;-87
2023/06/06 07:46:01;;;;;;;31.90;25.62;;;;;;;20.37;78.26;99241.13;4331195;33;34703;-84
2023/06/06 07:48:28;;;;;;;31.30;25.42;;;;;;;20.76;77.24;99240.13;4328234;33;32844;-85
2023/06/06 07:50:56;;;;;;;33.30;25.95;;;;;;;20.82;76.61;99238.22;4330635;33;33545;-84
2023/06/06 07:53:24;;;;;;;33.72;27.80;;;;;;;20.33;78.43;99233.34;4324253;33;34036;-84
2023/06/06 07:55:52;;;;;;;31.73;27.02;;;;;;;20.80;76.08;99234.78;4329345;33;34900;-90
2023/06/06 07:58:25;;;;;;;33.97;25.45;;;;;;;20.73;75.82;99232.34;4318961;33;34056;-83
2023/06/06 08:00:58;;;;;;;33.22;27.83;;;;;;;20.57;77.58;99231.87;4317173;33;33706;-84
2023/06/06 08:03:26;;;;;;;38.90;27.90;;;;;;;20.86;76.54;99224.03;4325015;33;32672;-85
2023/06/06 08:05:54;;;;;;;38.00;27.45;;;;;;;21.08;76.35;99226.06;4312286;33;34042;-84
2023/06/06 08:08:21;;;;;;;30.88;24.83;;;;;;;21.06;76.37;99223.50;4316376;33;34449;-91
2023/06/06 08:10:49;;;;;;;33.08;25.77;;;;;;;21.16;75.25;99231.13;4316553;33;34596;-87
2023/06/06 08:13:16;;;;;;;33.22;26.77;;;;;;;21.32;74.36;99222.69;4305558;33;33175;-83
2023/06/06 08:15:44;;;;;;;34.55;27.13;;;;;;;21.31;75.30;99225.38;4316449;33;34314;-82
2023/06/06 08:18:15;;;;;;;34.75;26.77;;;;;;;21.23;75.69;99222.97;4316633;33;34498;-83
2023/06/06 08:20:43;;;;;;;35.75;27.20;;;;;;;20.91;76.09;99218.66;4316387;33;33841;-83
2023/06/06 08:23:10;;;;;;;33.80;26.48;;;;;;;20.86;77.57;99224.03;4324413;33;34228;-83
2023/06/06 08:25:39;;;;;;;33.88;26.75;;;;;;;21.18;76.79;99218.78;4329781;33;35150;-86
2023/06/06 08:28:07;;;;;;;35.90;27.27;;;;;;;21.62;74.99;99220.91;4330579;33;34663;-83
2023/06/06 08:30:34;;;;;;;36.67;27.10;;;;;;;21.37;75.29;99223.47;4327344;33;34012;-89
2023/06/06 08:33:02;;;;;;;32.58;26.83;;;;;;;21.51;75.80;99222.16;4328963;33;34648;-83
2023/06/06 08:35:30;;;;;;;32.42;26.92;;;;;;;21.34;74.69;99225.34;4330838;33;35015;-83
2023/06/06 08:37:57;;;;;;;36.35;26.58;;;;;;;21.45;74.42;99217.09;4317099;33;32417;-85
2023/06/06 08:40:25;;;;;;;31.08;25.75;;;;;;;21.73;73.49;99217.94;4315237;33;33471;-85
2023/06/06 08:42:53;;;;;;;34.38;24.98;;;;;;;21.72;73.18;99224.16;4289683;33;33494;-92
2023/06/06 08:45:21;;;;;;;37.13;26.05;;;;;;;21.99;72.12;99218.88;4288402;33;33874;-84
2023/06/06 08:47:49;;;;;;;28.40;23.08;;;;;;;21.82;72.09;99217.69;4288148;33;33375;-89
2023/06/06 08:50:17;;;;;;;29.77;24.40;;;;;;;21.52;71.78;99213.38;4319899;33;31986;-84
2023/06/06 08:52:45;;;;;;;29.75;24.60;;;;;;;21.51;72.85;99215.13;4329139;33;34737;-83
2023/06/06 08:55:13;;;;;;;32.05;23.08;;;;;;;21.75;72.84;99210.88;4305174;33;33878;-84
2023/06/06 08:57:43;;;;;;;32.45;24.10;;;;;;;22.03;73.05;99210.81;4329171;33;34140;-92
2023/06/06 09:00:23;;;;;;;25.45;20.92;;;;;;;22.02;72.89;99210.88;4320693;33;33440;-84
2023/06/06 09:02:52;;;;;;;27.40;19.67;;;;;;;22.02;70.29;99213.53;4323017;33;33631;-84
2023/06/06 09:05:20;;;;;;;27.50;22.33;;;;;;;22.02;69.00;99210.88;4329256;33;33890;-84
2023/06/06 09:07:49;;;;;;;24.25;19.17;;;;;;;22.15;71.04;99209.56;4329358;33;33522;-85
2023/06/06 09:10:17;;;;;;;23.55;19.15;;;;;;;21.98;69.89;99211.91;4318543;33;34371;-85
2023/06/06 09:12:46;;;;;;;24.85;19.20;;;;;;;22.22;68.27;99216.37;4314285;33;34044;-91
2023/06/06 09:15:14;;;;;;;22.98;17.75;;;;;;;22.14;68.33;99213.12;4314508;33;34179;-85
2023/06/06 09:17:44;;;;;;;17.65;14.82;;;;;;;22.17;69.08;99207.75;4315594;33;34111;-92
2023/06/06 09:20:15;;;;;;;19.60;15.13;;;;;;;21.92;67.13;99214.72;4320945;33;33294;-84
2023/06/06 09:22:45;;;;;;;23.08;18.20;;;;;;;22.44;64.67;99205.09;4328809;33;34624;-83
2023/06/06 09:25:24;;;;;;;23.52;17.90;;;;;;;22.06;68.73;99205.44;4328460;33;33948;-84
2023/06/06 09:28:02;;;;;;;22.40;17.52;;;;;;;22.26;68.56;99206.56;4329858;33;33888;-92
2023/06/06 09:30:31;;;;;;;21.30;17.58;;;;;;;22.47;65.70;99199.69;4317792;33;33644;-82
2023/06/06 09:33:01;;;;;;;22.25;17.87;;;;;;;22.68;65.93;99209.47;4288154;33;33765;-85
2023/06/06 09:35:41;;;;;;;23.42;18.48;;;;;;;22.36;66.00;99191.28;4326072;33;35057;-84
2023/06/06 09:38:17;;;;;;;26.23;20.00;;;;;;;22.44;67.08;99195.38;4307142;33;33629;-83
2023/06/06 09:40:52;;;;;;;25.35;19.85;;;;;;;22.59;68.89;99204.53;4313318;33;33545;-88
2023/06/06 09:43:24;;;;;;;25.13;20.83;;;;;;;22.48;68.69;99202.28;4315054;33;35264;-84
2023/06/06 09:45:55;;;;;;;28.23;21.00;;;;;;;22.62;66.89;99206.22;4315344;33;34179;-83
2023/06/06 09:48:25;;;;;;;26.77;21.33;;;;;;;22.76;67.88;99207.41;4315912;33;33741;-88
2023/06/06 09:50:54;;;;;;;28.12;23.10;;;;;;;23.09;68.01;99198.34;4325807;33;33896;-86
2023/06/06 09:53:28;;;;;;;27.65;21.00;;;;;;;23.00;69.34;99194.28;4323843;33;35556;-90
2023/06/06 09:56:02;;;;;;;32.22;20.62;;;;;;;22.99;69.30;99193.37;4289938;33;33944;-93
2023/06/06 09:58:32;;;;;;;28.35;21.58;;;;;;;22.95;70.10;99196.22;4318873;33;33929;-92
2023/06/06 10:01:01;;;;;;;24.87;20.30;;;;;;;23.16;69.50;99199.84;4329501;33;33992;-84
2023/06/06 10:03:31;;;;;;;28.83;19.70;;;;;;;23.26;68.43;99196.78;4326749;33;34816;-82
2023/06/06 10:06:05;;;;;;;26.33;21.83;;;;;;;23.06;67.68;99196.66;4316541;33;34968;-89
2023/06/06 10:08:34;;;;;;;28.00;21.77;;;;;;;22.59;67.32;99188.69;4311509;33;33595;-83
2023/06/06 10:11:02;;;;;;;27.70;21.45;;;;;;;22.62;70.04;99191.22;4314937;33;33452;-84
2023/06/06 10:13:31;;;;;;;23.48;19.67;;;;;;;22.79;69.57;99187.94;4315534;33;35430;-83
2023/06/06 10:16:04;;;;;;;22.85;17.02;;;;;;;22.69;69.08;99192.72;4301630;33;34353;-88
2023/06/06 10:18:33;;;;;;;25.95;16.87;;;;;;;23.01;66.32;99190.69;4317279;33;34371;-82
2023/06/06 10:21:02;;;;;;;21.48;17.23;;;;;;;22.50;66.81;99189.00;4316578;33;35058;-88
2023/06/06 10:23:30;;;;;;;22.17;17.42;;;;;;;22.42;67.49;99189.25;4315374;33;33723;-82
2023/06/06 10:25:58;;;;;;;19.95;15.07;;;;;;;22.29;67.47;99186.19;4316815;33;35163;-88
2023/06/06 10:28:35;;;;;;;19.55;15.50;;;;;;;22.28;66.68;99184.47;4329686;33;33966;-83
2023/06/06 10:31:27;;;;;;;17.73;13.93;;;;;;;22.44;67.09;99187.44;4331730;33;33096;-83
2023/06/06 10:33:57;;;;;;;18.37;14.77;;;;;;;22.10;66.28;99187.72;4330421;33;33937;-84
2023/06/06 10:36:24;;;;;;;16.98;14.65;;;;;;;22.17;65.32;99186.63;4329708;33;34129;-83
2023/06/06 10:39:25;;;;;;;22.33;17.02;;;;;;;22.05;66.92;99190.53;4331052;33;34676;-84
2023/06/06 10:42:07;;;;;;;22.33;18.45;;;;;;;22.14;67.71;99181.44;4295497;33;32610;-89
2023/06/06 10:44:44;;;;;;;23.30;18.85;;;;;;;22.38;67.90;99184.16;4329993;33;33735;-84
2023/06/06 10:47:21;;;;;;;22.73;18.50;;;;;;;22.27;69.38;99180.09;4330366;33;34133;-90
2023/06/06 10:50:16;;;;;;;21.83;18.02;;;;;;;22.30;68.97;99182.62;4315755;33;32534;-84
2023/06/06 10:52:52;;;;;;;21.37;18.10;;;;;;;22.53;68.38;99176.53;4327418;33;34299;-84
2023/06/06 10:55:20;;;;;;;22.52;19.20;;;;;;;22.29;68.59;99173.00;4304359;33;34613;-83
2023/06/06 10:57:52;;;;;;;22.40;19.20;;;;;;;22.27;71.94;99177.47;4319165;33;34065;-90
2023/06/06 11:00:25;;;;;;;22.83;19.52;;;;;;;22.26;69.33;99175.75;4320434;33;34145;-90
2023/06/06 11:02:55;;;;;;;22.52;19.23;;;;;;;22.56;68.64;99168.50;4324114;33;33262;-93
2023/06/06 11:05:23;;;;;;;22.13;19.33;;;;;;;22.76;69.47;99182.78;4297199;33;33027;-87
2023/06/06 11:08:00;;;;;;;21.48;17.98;;;;;;;23.09;69.10;99178.03;4305925;33;33647;-90
2023/06/06 11:10:46;;;;;;;26.25;18.37;;;;;;;22.73;68.45;99183.78;4302777;33;33746;-87
2023/06/06 11:13:28;;;;;;;22.97;17.37;;;;;;;23.05;67.81;99184.38;4302828;33;33667;-91
2023/06/06 11:15:56;;;;;;;24.75;18.52;;;;;;;22.96;67.12;99177.66;4316014;33;33266;-83
2023/06/06 11:18:36;;;;;;;21.87;17.52;;;;;;;22.62;68.97;99177.16;4316027;33;34991;-83
2023/06/06 11:21:04;;;;;;;18.77;15.68;;;;;;;23.16;67.97;99181.31;4312587;33;34793;-83
2023/06/06 11:23:41;;;;;;;13.65;11.12;;;;;;;23.15;67.73;99180.47;4330292;33;33189;-83
2023/06/06 11:26:09;;;;;;;13.13;9.93;;;;;;;22.25;68.31;99191.66;4329250;33;34006;-82
2023/06/06 11:28:38;;;;;;;11.48;8.48;;;;;;;22.50;68.50;99189.88;4330155;33;34031;-81
2023/06/06 11:31:06;;;;;;;13.13;8.80;;;;;;;22.07;69.40;99191.31;4331088;33;34190;-82
2023/06/06 11:33:36;;;;;;;10.90;8.13;;;;;;;21.38;72.52;99188.28;4331154;33;34458;-83